sensor_id;sensor_type;location;lat;lon;timestamp;temperature;humidity
39095;DHT22;24840;47.508;19.376;2023-03-15T00:01:41;9.40;99.90
39095;DHT22;24840;47.508;19.376;2023-03-15T00:04:12;9.40;99.90
39095;DHT22;24840;47.508;19.376;2023-03-15T00:06:38;9.40;99.90
39095;DHT22;24840;47.508;19.376;2023-03-15T00:09:03;9.30;99.90
39095;DHT22;24840;47.508;19.376;2023-03-15T00:11:29;9.30;99.90
39095;DHT22;24840;47.508;19.376;2023-03-15T00:13:57;9.30;99.90
39095;DHT22;24840;47.508;19.376;2023-03-15T00:16:23;9.30;99.90
39095;DHT22;24840;47.508;19.376;2023-03-15T00:18:53;9.30;99.90
39095;DHT22;24840;47.508;19.376;2023-03-15T00:21:19;9.20;99.90
39095;DHT22;24840;47.508;19.376;2023-03-15T00:23:45;9.30;99.90
39095;DHT22;24840;47.508;19.376;2023-03-15T00:26:11;9.30;99.90
39095;DHT22;24840;47.508;19.376;2023-03-15T00:28:37;9.20;99.90
39095;DHT22;24840;47.508;19.376;2023-03-15T00:31:11;9.30;99.90
39095;DHT22;24840;47.508;19.376;2023-03-15T00:33:37;9.30;99.90
39095;DHT22;24840;47.508;19.376;2023-03-15T00:36:05;9.30;99.90
39095;DHT22;24840;47.508;19.376;2023-03-15T00:38:32;9.20;99.90
39095;DHT22;24840;47.508;19.376;2023-03-15T00:41:07;9.20;99.90
39095;DHT22;24840;47.508;19.376;2023-03-15T00:43:33;9.30;99.90
39095;DHT22;24840;47.508;19.376;2023-03-15T00:45:59;9.20;99.90
39095;DHT22;24840;47.508;19.376;2023-03-15T00:48:25;9.20;99.90
39095;DHT22;24840;47.508;19.376;2023-03-15T00:50:59;9.20;99.90
39095;DHT22;24840;47.508;19.376;2023-03-15T00:53:25;9.20;99.90
39095;DHT22;24840;47.508;19.376;2023-03-15T00:55:51;9.10;99.90
39095;DHT22;24840;47.508;19.376;2023-03-15T00:58:17;9.10;99.90
39095;DHT22;24840;47.508;19.376;2023-03-15T01:00:43;9.10;99.90
39095;DHT22;24840;47.508;19.376;2023-03-15T01:03:08;9.10;99.90
39095;DHT22;24840;47.508;19.376;2023-03-15T01:05:35;9.10;99.90
39095;DHT22;24840;47.508;19.376;2023-03-15T01:08:01;9.10;99.90
39095;DHT22;24840;47.508;19.376;2023-03-15T01:10:27;9.10;99.90
39095;DHT22;24840;47.508;19.376;2023-03-15T01:12:53;9.00;99.90
39095;DHT22;24840;47.508;19.376;2023-03-15T01:15:19;9.00;99.90
39095;DHT22;24840;47.508;19.376;2023-03-15T01:17:45;8.90;99.90
39095;DHT22;24840;47.508;19.376;2023-03-15T01:20:14;9.00;99.90
39095;DHT22;24840;47.508;19.376;2023-03-15T01:22:39;8.90;99.90
39095;DHT22;24840;47.508;19.376;2023-03-15T01:25:06;8.90;99.90
39095;DHT22;24840;47.508;19.376;2023-03-15T01:27:32;9.00;99.90
39095;DHT22;24840;47.508;19.376;2023-03-15T01:29:57;9.00;99.90
39095;DHT22;24840;47.508;19.376;2023-03-15T01:32:23;9.00;99.90
39095;DHT22;24840;47.508;19.376;2023-03-15T01:34:49;8.90;99.90
39095;DHT22;24840;47.508;19.376;2023-03-15T01:37:15;8.90;99.90
39095;DHT22;24840;47.508;19.376;2023-03-15T01:39:41;8.90;99.90
39095;DHT22;24840;47.508;19.376;2023-03-15T01:42:07;8.90;99.90
39095;DHT22;24840;47.508;19.376;2023-03-15T01:47:13;8.90;99.90
39095;DHT22;24840;47.508;19.376;2023-03-15T01:49:39;8.80;99.90
39095;DHT22;24840;47.508;19.376;2023-03-15T01:52:11;8.80;99.90
39095;DHT22;24840;47.508;19.376;2023-03-15T01:54:45;8.80;99.90
39095;DHT22;24840;47.508;19.376;2023-03-15T01:57:18;8.80;99.90
39095;DHT22;24840;47.508;19.376;2023-03-15T02:00:08;8.70;99.90
39095;DHT22;24840;47.508;19.376;2023-03-15T02:02:40;8.80;99.90
39095;DHT22;24840;47.508;19.376;2023-03-15T02:05:14;8.80;99.90
39095;DHT22;24840;47.508;19.376;2023-03-15T02:07:43;8.80;99.90
39095;DHT22;24840;47.508;19.376;2023-03-15T02:10:17;8.80;99.90
39095;DHT22;24840;47.508;19.376;2023-03-15T02:12:48;8.70;99.90
39095;DHT22;24840;47.508;19.376;2023-03-15T02:15:16;8.70;99.90
39095;DHT22;24840;47.508;19.376;2023-03-15T02:17:45;8.70;99.90
39095;DHT22;24840;47.508;19.376;2023-03-15T02:22:57;8.70;99.90
39095;DHT22;24840;47.508;19.376;2023-03-15T02:28:24;8.70;99.90
39095;DHT22;24840;47.508;19.376;2023-03-15T02:30:50;8.70;99.90
39095;DHT22;24840;47.508;19.376;2023-03-15T02:33:49;8.70;99.90
39095;DHT22;24840;47.508;19.376;2023-03-15T02:36:20;8.60;99.90
39095;DHT22;24840;47.508;19.376;2023-03-15T02:38:48;8.60;99.90
39095;DHT22;24840;47.508;19.376;2023-03-15T02:41:27;8.60;99.90
39095;DHT22;24840;47.508;19.376;2023-03-15T02:43:58;8.60;99.90
39095;DHT22;24840;47.508;19.376;2023-03-15T02:46:26;8.60;99.90
39095;DHT22;24840;47.508;19.376;2023-03-15T02:48:52;8.60;99.90
39095;DHT22;24840;47.508;19.376;2023-03-15T02:51:21;8.50;99.90
39095;DHT22;24840;47.508;19.376;2023-03-15T02:53:47;8.50;99.90
39095;DHT22;24840;47.508;19.376;2023-03-15T02:56:14;8.50;99.90
39095;DHT22;24840;47.508;19.376;2023-03-15T02:58:40;8.50;99.90
39095;DHT22;24840;47.508;19.376;2023-03-15T03:01:06;8.50;99.90
39095;DHT22;24840;47.508;19.376;2023-03-15T03:03:32;8.50;99.90
39095;DHT22;24840;47.508;19.376;2023-03-15T03:05:58;8.50;99.90
39095;DHT22;24840;47.508;19.376;2023-03-15T03:08:24;8.50;99.90
39095;DHT22;24840;47.508;19.376;2023-03-15T03:10:50;8.40;99.90
39095;DHT22;24840;47.508;19.376;2023-03-15T03:13:15;8.40;99.90
39095;DHT22;24840;47.508;19.376;2023-03-15T03:15:41;8.40;99.90
39095;DHT22;24840;47.508;19.376;2023-03-15T03:18:10;8.40;99.90
39095;DHT22;24840;47.508;19.376;2023-03-15T03:20:36;8.40;99.90
39095;DHT22;24840;47.508;19.376;2023-03-15T03:23:02;8.30;99.90
39095;DHT22;24840;47.508;19.376;2023-03-15T03:25:32;8.40;99.90
39095;DHT22;24840;47.508;19.376;2023-03-15T03:27:58;8.40;99.90
39095;DHT22;24840;47.508;19.376;2023-03-15T03:30:24;8.30;99.90
39095;DHT22;24840;47.508;19.376;2023-03-15T03:32:50;8.30;99.90
39095;DHT22;24840;47.508;19.376;2023-03-15T03:35:16;8.30;99.90
39095;DHT22;24840;47.508;19.376;2023-03-15T03:37:42;8.30;99.90
39095;DHT22;24840;47.508;19.376;2023-03-15T03:40:08;8.30;99.90
39095;DHT22;24840;47.508;19.376;2023-03-15T03:42:34;8.30;99.90
39095;DHT22;24840;47.508;19.376;2023-03-15T03:45:02;8.30;99.90
39095;DHT22;24840;47.508;19.376;2023-03-15T03:47:28;8.30;99.90
39095;DHT22;24840;47.508;19.376;2023-03-15T03:49:54;8.30;99.90
39095;DHT22;24840;47.508;19.376;2023-03-15T03:52:19;8.30;99.90
39095;DHT22;24840;47.508;19.376;2023-03-15T03:54:45;8.30;99.90
39095;DHT22;24840;47.508;19.376;2023-03-15T03:57:11;8.30;99.90
39095;DHT22;24840;47.508;19.376;2023-03-15T03:59:37;8.30;99.90
39095;DHT22;24840;47.508;19.376;2023-03-15T04:02:02;8.40;99.90
39095;DHT22;24840;47.508;19.376;2023-03-15T04:04:28;8.40;99.90
39095;DHT22;24840;47.508;19.376;2023-03-15T04:06:54;8.30;99.90
39095;DHT22;24840;47.508;19.376;2023-03-15T04:09:20;8.30;99.90
39095;DHT22;24840;47.508;19.376;2023-03-15T04:11:46;8.30;99.90
39095;DHT22;24840;47.508;19.376;2023-03-15T04:14:13;8.30;99.90
39095;DHT22;24840;47.508;19.376;2023-03-15T04:16:39;8.30;99.90
39095;DHT22;24840;47.508;19.376;2023-03-15T04:19:06;8.30;99.90
39095;DHT22;24840;47.508;19.376;2023-03-15T04:21:32;8.20;99.90
39095;DHT22;24840;47.508;19.376;2023-03-15T04:24:02;8.20;99.90
39095;DHT22;24840;47.508;19.376;2023-03-15T04:26:28;8.20;99.90
39095;DHT22;24840;47.508;19.376;2023-03-15T04:28:55;8.10;99.90
39095;DHT22;24840;47.508;19.376;2023-03-15T04:31:22;8.20;99.90
39095;DHT22;24840;47.508;19.376;2023-03-15T04:33:54;8.20;99.90
39095;DHT22;24840;47.508;19.376;2023-03-15T04:36:21;8.20;99.90
39095;DHT22;24840;47.508;19.376;2023-03-15T04:38:48;8.20;99.90
39095;DHT22;24840;47.508;19.376;2023-03-15T04:41:14;8.20;99.90
39095;DHT22;24840;47.508;19.376;2023-03-15T04:43:41;8.10;99.90
39095;DHT22;24840;47.508;19.376;2023-03-15T04:46:06;8.10;99.90
39095;DHT22;24840;47.508;19.376;2023-03-15T04:48:33;8.10;99.90
39095;DHT22;24840;47.508;19.376;2023-03-15T04:50:58;8.10;99.90
39095;DHT22;24840;47.508;19.376;2023-03-15T04:53:25;8.20;99.90
39095;DHT22;24840;47.508;19.376;2023-03-15T04:55:51;8.20;99.90
39095;DHT22;24840;47.508;19.376;2023-03-15T04:58:17;8.20;99.90
39095;DHT22;24840;47.508;19.376;2023-03-15T05:00:43;8.10;99.90
39095;DHT22;24840;47.508;19.376;2023-03-15T05:03:08;8.10;99.90
39095;DHT22;24840;47.508;19.376;2023-03-15T05:05:34;8.10;99.90
39095;DHT22;24840;47.508;19.376;2023-03-15T05:08:00;8.00;99.90
39095;DHT22;24840;47.508;19.376;2023-03-15T05:10:26;7.90;99.90
39095;DHT22;24840;47.508;19.376;2023-03-15T05:12:54;7.90;99.90
39095;DHT22;24840;47.508;19.376;2023-03-15T05:15:20;7.80;99.90
39095;DHT22;24840;47.508;19.376;2023-03-15T05:17:46;7.80;99.90
39095;DHT22;24840;47.508;19.376;2023-03-15T05:20:13;7.80;99.90
39095;DHT22;24840;47.508;19.376;2023-03-15T05:22:39;7.80;99.90
39095;DHT22;24840;47.508;19.376;2023-03-15T05:25:06;7.70;99.90
39095;DHT22;24840;47.508;19.376;2023-03-15T05:27:32;7.70;99.90
39095;DHT22;24840;47.508;19.376;2023-03-15T05:29:59;7.60;99.90
39095;DHT22;24840;47.508;19.376;2023-03-15T05:32:28;7.60;99.90
39095;DHT22;24840;47.508;19.376;2023-03-15T05:34:54;7.60;99.90
39095;DHT22;24840;47.508;19.376;2023-03-15T05:37:21;7.50;99.90
39095;DHT22;24840;47.508;19.376;2023-03-15T05:39:47;7.50;99.90
39095;DHT22;24840;47.508;19.376;2023-03-15T05:42:13;7.50;99.90
39095;DHT22;24840;47.508;19.376;2023-03-15T05:44:39;7.30;99.90
39095;DHT22;24840;47.508;19.376;2023-03-15T05:47:05;7.30;99.90
39095;DHT22;24840;47.508;19.376;2023-03-15T05:49:30;7.20;99.90
39095;DHT22;24840;47.508;19.376;2023-03-15T05:51:56;7.20;99.90
39095;DHT22;24840;47.508;19.376;2023-03-15T05:54:22;7.20;99.90
39095;DHT22;24840;47.508;19.376;2023-03-15T05:56:48;7.20;99.90
39095;DHT22;24840;47.508;19.376;2023-03-15T05:59:14;7.10;99.90
39095;DHT22;24840;47.508;19.376;2023-03-15T06:01:39;7.20;99.90
39095;DHT22;24840;47.508;19.376;2023-03-15T06:04:05;7.10;99.90
39095;DHT22;24840;47.508;19.376;2023-03-15T06:06:31;7.10;99.90
39095;DHT22;24840;47.508;19.376;2023-03-15T06:08:56;7.20;99.90
39095;DHT22;24840;47.508;19.376;2023-03-15T06:11:22;7.20;99.90
39095;DHT22;24840;47.508;19.376;2023-03-15T06:13:48;7.20;99.90
39095;DHT22;24840;47.508;19.376;2023-03-15T06:16:14;7.30;99.90
39095;DHT22;24840;47.508;19.376;2023-03-15T06:18:39;7.20;99.90
39095;DHT22;24840;47.508;19.376;2023-03-15T06:21:05;7.30;99.90
39095;DHT22;24840;47.508;19.376;2023-03-15T06:23:31;7.20;99.90
39095;DHT22;24840;47.508;19.376;2023-03-15T06:25:57;7.30;99.90
39095;DHT22;24840;47.508;19.376;2023-03-15T06:28:22;7.40;99.90
39095;DHT22;24840;47.508;19.376;2023-03-15T06:30:48;7.60;99.90
39095;DHT22;24840;47.508;19.376;2023-03-15T06:33:14;7.60;99.90
39095;DHT22;24840;47.508;19.376;2023-03-15T06:35:41;7.60;99.90
39095;DHT22;24840;47.508;19.376;2023-03-15T06:38:07;7.60;99.90
39095;DHT22;24840;47.508;19.376;2023-03-15T06:40:32;7.60;99.90
39095;DHT22;24840;47.508;19.376;2023-03-15T06:42:58;7.70;99.90
39095;DHT22;24840;47.508;19.376;2023-03-15T06:45:28;7.60;99.90
39095;DHT22;24840;47.508;19.376;2023-03-15T06:47:56;7.60;99.90
39095;DHT22;24840;47.508;19.376;2023-03-15T06:50:21;7.60;99.90
39095;DHT22;24840;47.508;19.376;2023-03-15T06:52:47;7.60;99.90
39095;DHT22;24840;47.508;19.376;2023-03-15T06:55:13;7.60;99.90
39095;DHT22;24840;47.508;19.376;2023-03-15T06:57:43;7.60;99.90
39095;DHT22;24840;47.508;19.376;2023-03-15T07:00:09;7.60;99.90
39095;DHT22;24840;47.508;19.376;2023-03-15T07:02:36;7.50;99.90
39095;DHT22;24840;47.508;19.376;2023-03-15T07:05:03;7.50;99.90
39095;DHT22;24840;47.508;19.376;2023-03-15T07:07:29;7.50;99.90
39095;DHT22;24840;47.508;19.376;2023-03-15T07:09:54;7.40;99.90
39095;DHT22;24840;47.508;19.376;2023-03-15T07:12:20;7.40;99.90
39095;DHT22;24840;47.508;19.376;2023-03-15T07:14:46;7.40;99.90
39095;DHT22;24840;47.508;19.376;2023-03-15T07:17:12;7.40;99.90
39095;DHT22;24840;47.508;19.376;2023-03-15T07:19:38;7.30;99.90
39095;DHT22;24840;47.508;19.376;2023-03-15T07:22:04;7.30;99.90
39095;DHT22;24840;47.508;19.376;2023-03-15T07:24:29;7.30;99.90
39095;DHT22;24840;47.508;19.376;2023-03-15T07:26:55;7.40;99.90
39095;DHT22;24840;47.508;19.376;2023-03-15T07:29:22;7.40;99.90
39095;DHT22;24840;47.508;19.376;2023-03-15T07:31:49;7.40;99.90
39095;DHT22;24840;47.508;19.376;2023-03-15T07:34:15;7.40;99.90
39095;DHT22;24840;47.508;19.376;2023-03-15T07:36:40;7.40;99.90
39095;DHT22;24840;47.508;19.376;2023-03-15T07:39:06;7.30;99.90
39095;DHT22;24840;47.508;19.376;2023-03-15T07:41:32;7.40;99.90
39095;DHT22;24840;47.508;19.376;2023-03-15T07:43:58;7.40;99.90
39095;DHT22;24840;47.508;19.376;2023-03-15T07:46:23;7.40;99.90
39095;DHT22;24840;47.508;19.376;2023-03-15T07:48:49;7.30;99.90
39095;DHT22;24840;47.508;19.376;2023-03-15T07:51:15;7.20;99.90
39095;DHT22;24840;47.508;19.376;2023-03-15T07:53:41;7.20;99.90
39095;DHT22;24840;47.508;19.376;2023-03-15T07:56:07;7.00;99.90
39095;DHT22;24840;47.508;19.376;2023-03-15T07:58:32;7.00;99.90
39095;DHT22;24840;47.508;19.376;2023-03-15T08:00:58;7.10;99.90
39095;DHT22;24840;47.508;19.376;2023-03-15T08:03:24;7.10;99.90
39095;DHT22;24840;47.508;19.376;2023-03-15T08:05:51;7.00;99.90
39095;DHT22;24840;47.508;19.376;2023-03-15T08:08:17;6.90;99.90
39095;DHT22;24840;47.508;19.376;2023-03-15T08:10:43;6.80;99.90
39095;DHT22;24840;47.508;19.376;2023-03-15T08:13:10;6.90;99.90
39095;DHT22;24840;47.508;19.376;2023-03-15T08:15:35;6.90;99.90
39095;DHT22;24840;47.508;19.376;2023-03-15T08:18:01;7.00;99.90
39095;DHT22;24840;47.508;19.376;2023-03-15T08:20:27;7.10;99.90
39095;DHT22;24840;47.508;19.376;2023-03-15T08:22:53;7.10;99.90
39095;DHT22;24840;47.508;19.376;2023-03-15T08:25:21;7.00;99.90
39095;DHT22;24840;47.508;19.376;2023-03-15T08:27:48;7.00;99.90
39095;DHT22;24840;47.508;19.376;2023-03-15T08:30:15;7.00;99.90
39095;DHT22;24840;47.508;19.376;2023-03-15T08:32:43;7.10;99.90
39095;DHT22;24840;47.508;19.376;2023-03-15T08:35:10;7.00;99.90
39095;DHT22;24840;47.508;19.376;2023-03-15T08:37:38;7.00;99.90
39095;DHT22;24840;47.508;19.376;2023-03-15T08:40:04;7.10;99.90
39095;DHT22;24840;47.508;19.376;2023-03-15T08:42:36;7.20;99.90
39095;DHT22;24840;47.508;19.376;2023-03-15T08:45:04;7.10;99.90
39095;DHT22;24840;47.508;19.376;2023-03-15T08:47:34;7.10;99.90
39095;DHT22;24840;47.508;19.376;2023-03-15T08:50:06;7.00;99.90
39095;DHT22;24840;47.508;19.376;2023-03-15T08:52:32;7.20;99.90
39095;DHT22;24840;47.508;19.376;2023-03-15T08:54:58;7.30;99.90
39095;DHT22;24840;47.508;19.376;2023-03-15T08:57:24;7.20;99.90
39095;DHT22;24840;47.508;19.376;2023-03-15T08:59:51;7.30;99.90
39095;DHT22;24840;47.508;19.376;2023-03-15T09:02:17;7.40;99.90
39095;DHT22;24840;47.508;19.376;2023-03-15T09:04:43;7.40;99.90
39095;DHT22;24840;47.508;19.376;2023-03-15T09:07:09;7.40;99.90
39095;DHT22;24840;47.508;19.376;2023-03-15T09:09:37;7.30;99.90
39095;DHT22;24840;47.508;19.376;2023-03-15T09:12:02;7.30;99.90
39095;DHT22;24840;47.508;19.376;2023-03-15T09:14:28;7.40;99.90
39095;DHT22;24840;47.508;19.376;2023-03-15T09:16:54;7.30;99.90
39095;DHT22;24840;47.508;19.376;2023-03-15T09:19:20;7.20;99.90
39095;DHT22;24840;47.508;19.376;2023-03-15T09:21:45;7.30;99.90
39095;DHT22;24840;47.508;19.376;2023-03-15T09:24:12;7.40;99.90
39095;DHT22;24840;47.508;19.376;2023-03-15T09:26:37;7.30;99.90
39095;DHT22;24840;47.508;19.376;2023-03-15T09:29:03;7.30;99.90
39095;DHT22;24840;47.508;19.376;2023-03-15T09:31:30;7.40;99.90
39095;DHT22;24840;47.508;19.376;2023-03-15T09:33:56;7.50;99.90
39095;DHT22;24840;47.508;19.376;2023-03-15T09:36:23;7.50;99.90
39095;DHT22;24840;47.508;19.376;2023-03-15T09:38:48;7.60;99.90
39095;DHT22;24840;47.508;19.376;2023-03-15T09:41:39;7.70;99.90
39095;DHT22;24840;47.508;19.376;2023-03-15T09:44:29;7.70;99.90
39095;DHT22;24840;47.508;19.376;2023-03-15T09:50:25;7.70;99.90
39095;DHT22;24840;47.508;19.376;2023-03-15T09:52:56;7.70;99.90
39095;DHT22;24840;47.508;19.376;2023-03-15T09:55:26;7.90;99.90
39095;DHT22;24840;47.508;19.376;2023-03-15T10:00:37;7.80;99.90
39095;DHT22;24840;47.508;19.376;2023-03-15T10:03:05;7.80;99.90
39095;DHT22;24840;47.508;19.376;2023-03-15T10:05:41;7.80;99.90
39095;DHT22;24840;47.508;19.376;2023-03-15T10:08:13;7.80;99.90
39095;DHT22;24840;47.508;19.376;2023-03-15T10:13:42;7.80;99.90
39095;DHT22;24840;47.508;19.376;2023-03-15T10:16:14;7.90;99.90
39095;DHT22;24840;47.508;19.376;2023-03-15T10:21:45;7.80;99.90
39095;DHT22;24840;47.508;19.376;2023-03-15T10:24:46;7.80;99.90
39095;DHT22;24840;47.508;19.376;2023-03-15T10:28:01;7.80;99.90
39095;DHT22;24840;47.508;19.376;2023-03-15T10:30:18;8.00;99.90
39095;DHT22;24840;47.508;19.376;2023-03-15T10:33:01;8.00;99.90
39095;DHT22;24840;47.508;19.376;2023-03-15T10:35:27;8.10;99.90
39095;DHT22;24840;47.508;19.376;2023-03-15T10:37:53;8.10;99.90
39095;DHT22;24840;47.508;19.376;2023-03-15T10:40:40;8.30;99.90
39095;DHT22;24840;47.508;19.376;2023-03-15T10:43:22;8.20;99.90
39095;DHT22;24840;47.508;19.376;2023-03-15T10:46:04;8.30;99.90
39095;DHT22;24840;47.508;19.376;2023-03-15T10:48:39;8.50;99.90
39095;DHT22;24840;47.508;19.376;2023-03-15T10:51:25;8.50;99.90
39095;DHT22;24840;47.508;19.376;2023-03-15T10:54:12;8.30;99.90
39095;DHT22;24840;47.508;19.376;2023-03-15T10:57:14;8.50;99.90
39095;DHT22;24840;47.508;19.376;2023-03-15T11:00:03;8.60;99.90
39095;DHT22;24840;47.508;19.376;2023-03-15T11:02:59;8.80;99.90
39095;DHT22;24840;47.508;19.376;2023-03-15T11:05:51;9.00;99.90
39095;DHT22;24840;47.508;19.376;2023-03-15T11:08:18;9.20;99.90
39095;DHT22;24840;47.508;19.376;2023-03-15T11:10:49;8.90;99.90
39095;DHT22;24840;47.508;19.376;2023-03-15T11:13:21;8.80;99.90
39095;DHT22;24840;47.508;19.376;2023-03-15T11:18:28;9.30;99.90
39095;DHT22;24840;47.508;19.376;2023-03-15T11:20:56;9.50;99.90
39095;DHT22;24840;47.508;19.376;2023-03-15T11:23:28;9.60;99.90
39095;DHT22;24840;47.508;19.376;2023-03-15T11:25:56;9.70;99.90
39095;DHT22;24840;47.508;19.376;2023-03-15T11:28:27;9.80;99.90
39095;DHT22;24840;47.508;19.376;2023-03-15T11:30:54;9.90;99.90
39095;DHT22;24840;47.508;19.376;2023-03-15T11:33:40;9.80;99.90
39095;DHT22;24840;47.508;19.376;2023-03-15T11:36:13;10.00;99.90
39095;DHT22;24840;47.508;19.376;2023-03-15T11:38:42;10.10;99.90
39095;DHT22;24840;47.508;19.376;2023-03-15T11:44:11;10.00;99.90
39095;DHT22;24840;47.508;19.376;2023-03-15T11:47:22;9.90;99.90
39095;DHT22;24840;47.508;19.376;2023-03-15T11:49:55;9.80;99.90
39095;DHT22;24840;47.508;19.376;2023-03-15T11:52:24;9.90;99.90
39095;DHT22;24840;47.508;19.376;2023-03-15T11:54:53;9.70;99.90
39095;DHT22;24840;47.508;19.376;2023-03-15T11:59:54;9.60;99.90
39095;DHT22;24840;47.508;19.376;2023-03-15T12:04:52;9.70;99.90
39095;DHT22;24840;47.508;19.376;2023-03-15T12:09:57;9.90;99.90
39095;DHT22;24840;47.508;19.376;2023-03-15T12:12:46;9.90;99.90
39095;DHT22;24840;47.508;19.376;2023-03-15T12:18:05;9.90;99.90
39095;DHT22;24840;47.508;19.376;2023-03-15T12:20:38;10.10;99.90
39095;DHT22;24840;47.508;19.376;2023-03-15T12:26:04;10.40;99.90
39095;DHT22;24840;47.508;19.376;2023-03-15T12:28:35;10.20;99.90
39095;DHT22;24840;47.508;19.376;2023-03-15T12:31:03;10.20;99.90
39095;DHT22;24840;47.508;19.376;2023-03-15T12:33:31;10.20;99.90
39095;DHT22;24840;47.508;19.376;2023-03-15T12:36:15;10.30;99.90
39095;DHT22;24840;47.508;19.376;2023-03-15T12:39:18;10.40;99.90
39095;DHT22;24840;47.508;19.376;2023-03-15T12:41:40;10.20;99.80
39095;DHT22;24840;47.508;19.376;2023-03-15T12:54:45;9.80;99.90
39095;DHT22;24840;47.508;19.376;2023-03-15T12:57:13;9.80;99.90
39095;DHT22;24840;47.508;19.376;2023-03-15T13:02:32;9.70;99.90
39095;DHT22;24840;47.508;19.376;2023-03-15T13:05:10;9.60;99.90
39095;DHT22;24840;47.508;19.376;2023-03-15T13:07:54;9.60;99.90
39095;DHT22;24840;47.508;19.376;2023-03-15T13:13:20;9.50;99.90
39095;DHT22;24840;47.508;19.376;2023-03-15T13:27:29;9.60;99.90
39095;DHT22;24840;47.508;19.376;2023-03-15T13:30:07;9.70;99.90
39095;DHT22;24840;47.508;19.376;2023-03-15T13:32:47;9.70;99.90
39095;DHT22;24840;47.508;19.376;2023-03-15T13:35:13;9.90;99.90
39095;DHT22;24840;47.508;19.376;2023-03-15T13:37:39;9.80;99.90
39095;DHT22;24840;47.508;19.376;2023-03-15T13:40:12;9.80;99.90
39095;DHT22;24840;47.508;19.376;2023-03-15T13:42:40;9.70;99.90
39095;DHT22;24840;47.508;19.376;2023-03-15T13:45:14;9.70;99.90
39095;DHT22;24840;47.508;19.376;2023-03-15T13:47:44;9.70;99.90
39095;DHT22;24840;47.508;19.376;2023-03-15T13:50:19;9.60;99.90
39095;DHT22;24840;47.508;19.376;2023-03-15T13:52:46;9.60;99.90
39095;DHT22;24840;47.508;19.376;2023-03-15T13:55:15;9.50;99.90
39095;DHT22;24840;47.508;19.376;2023-03-15T13:57:41;9.40;99.90
39095;DHT22;24840;47.508;19.376;2023-03-15T14:00:10;9.50;99.90
39095;DHT22;24840;47.508;19.376;2023-03-15T14:02:46;9.50;99.90
39095;DHT22;24840;47.508;19.376;2023-03-15T14:05:19;9.40;99.90
39095;DHT22;24840;47.508;19.376;2023-03-15T14:10:35;9.30;99.90
39095;DHT22;24840;47.508;19.376;2023-03-15T14:13:24;9.30;99.90
39095;DHT22;24840;47.508;19.376;2023-03-15T14:16:01;9.30;97.60
39095;DHT22;24840;47.508;19.376;2023-03-15T14:18:38;9.20;96.40
39095;DHT22;24840;47.508;19.376;2023-03-15T14:21:05;9.20;98.90
39095;DHT22;24840;47.508;19.376;2023-03-15T14:23:35;9.20;98.40
39095;DHT22;24840;47.508;19.376;2023-03-15T14:28:33;9.40;99.90
39095;DHT22;24840;47.508;19.376;2023-03-15T14:30:59;9.30;99.90
39095;DHT22;24840;47.508;19.376;2023-03-15T14:33:36;9.30;99.90
39095;DHT22;24840;47.508;19.376;2023-03-15T14:36:06;9.30;99.90
39095;DHT22;24840;47.508;19.376;2023-03-15T14:38:37;9.30;99.90
39095;DHT22;24840;47.508;19.376;2023-03-15T14:41:30;9.10;99.90
39095;DHT22;24840;47.508;19.376;2023-03-15T14:44:01;9.10;99.90
39095;DHT22;24840;47.508;19.376;2023-03-15T14:46:29;9.00;99.90
39095;DHT22;24840;47.508;19.376;2023-03-15T14:48:55;8.90;99.90
39095;DHT22;24840;47.508;19.376;2023-03-15T14:51:22;8.80;99.90
39095;DHT22;24840;47.508;19.376;2023-03-15T14:53:51;8.70;99.90
39095;DHT22;24840;47.508;19.376;2023-03-15T14:56:19;8.80;99.90
39095;DHT22;24840;47.508;19.376;2023-03-15T14:58:44;8.80;99.90
39095;DHT22;24840;47.508;19.376;2023-03-15T15:01:16;8.70;99.90
39095;DHT22;24840;47.508;19.376;2023-03-15T15:03:56;8.60;99.90
39095;DHT22;24840;47.508;19.376;2023-03-15T15:06:24;8.50;99.90
39095;DHT22;24840;47.508;19.376;2023-03-15T15:08:53;8.50;99.90
39095;DHT22;24840;47.508;19.376;2023-03-15T15:11:19;8.50;99.90
39095;DHT22;24840;47.508;19.376;2023-03-15T15:13:46;8.50;99.90
39095;DHT22;24840;47.508;19.376;2023-03-15T15:16:11;8.50;99.90
39095;DHT22;24840;47.508;19.376;2023-03-15T15:18:37;8.30;99.90
39095;DHT22;24840;47.508;19.376;2023-03-15T15:21:24;8.30;99.90
39095;DHT22;24840;47.508;19.376;2023-03-15T15:23:51;8.20;99.90
39095;DHT22;24840;47.508;19.376;2023-03-15T15:26:21;8.20;99.90
39095;DHT22;24840;47.508;19.376;2023-03-15T15:28:48;8.20;99.90
39095;DHT22;24840;47.508;19.376;2023-03-15T15:31:19;8.30;99.90
39095;DHT22;24840;47.508;19.376;2023-03-15T15:33:50;8.20;99.90
39095;DHT22;24840;47.508;19.376;2023-03-15T15:36:25;8.20;99.90
39095;DHT22;24840;47.508;19.376;2023-03-15T15:38:52;8.20;99.90
39095;DHT22;24840;47.508;19.376;2023-03-15T15:41:23;8.20;99.90
39095;DHT22;24840;47.508;19.376;2023-03-15T15:43:49;8.10;99.90
39095;DHT22;24840;47.508;19.376;2023-03-15T15:46:15;8.10;99.90
39095;DHT22;24840;47.508;19.376;2023-03-15T15:48:41;8.10;99.90
39095;DHT22;24840;47.508;19.376;2023-03-15T15:51:18;8.10;99.90
39095;DHT22;24840;47.508;19.376;2023-03-15T15:53:45;7.90;99.90
39095;DHT22;24840;47.508;19.376;2023-03-15T15:56:11;7.90;99.90
39095;DHT22;24840;47.508;19.376;2023-03-15T15:58:41;7.90;99.90
39095;DHT22;24840;47.508;19.376;2023-03-15T16:01:11;7.90;99.90
39095;DHT22;24840;47.508;19.376;2023-03-15T16:03:38;7.80;99.90
39095;DHT22;24840;47.508;19.376;2023-03-15T16:06:03;7.90;99.90
39095;DHT22;24840;47.508;19.376;2023-03-15T16:08:34;7.90;99.90
39095;DHT22;24840;47.508;19.376;2023-03-15T16:11:01;7.80;99.90
39095;DHT22;24840;47.508;19.376;2023-03-15T16:13:28;7.80;99.90
39095;DHT22;24840;47.508;19.376;2023-03-15T16:15:53;7.80;99.90
39095;DHT22;24840;47.508;19.376;2023-03-15T16:18:19;7.70;99.90
39095;DHT22;24840;47.508;19.376;2023-03-15T16:20:45;7.70;99.90
39095;DHT22;24840;47.508;19.376;2023-03-15T16:23:22;7.70;99.90
39095;DHT22;24840;47.508;19.376;2023-03-15T16:25:52;7.60;99.90
39095;DHT22;24840;47.508;19.376;2023-03-15T16:28:20;7.60;99.90
39095;DHT22;24840;47.508;19.376;2023-03-15T16:30:46;7.50;99.90
39095;DHT22;24840;47.508;19.376;2023-03-15T16:33:17;7.40;99.90
39095;DHT22;24840;47.508;19.376;2023-03-15T16:35:44;7.40;99.90
39095;DHT22;24840;47.508;19.376;2023-03-15T16:38:16;7.30;99.00
39095;DHT22;24840;47.508;19.376;2023-03-15T16:40:49;7.20;97.00
39095;DHT22;24840;47.508;19.376;2023-03-15T16:43:16;7.10;95.40
39095;DHT22;24840;47.508;19.376;2023-03-15T16:45:42;7.00;94.40
39095;DHT22;24840;47.508;19.376;2023-03-15T16:48:08;7.00;95.60
39095;DHT22;24840;47.508;19.376;2023-03-15T16:50:34;7.00;94.40
39095;DHT22;24840;47.508;19.376;2023-03-15T16:53:04;6.90;95.70
39095;DHT22;24840;47.508;19.376;2023-03-15T16:55:31;6.90;95.30